createdAt,value
2023-02-14T00:00:00.665Z,0
2023-02-14T00:05:00.564Z,0
2023-02-14T00:10:00.634Z,0
2023-02-14T00:15:00.607Z,0
2023-02-14T00:20:00.624Z,0
2023-02-14T00:25:00.587Z,0
2023-02-14T00:30:00.660Z,0
2023-02-14T00:35:00.661Z,0
2023-02-14T00:40:00.629Z,0
2023-02-14T00:45:00.670Z,0
2023-02-14T00:50:00.585Z,0
2023-02-14T00:55:00.680Z,0
2023-02-14T01:00:00.582Z,0
2023-02-14T01:05:00.615Z,0
2023-02-14T01:10:00.607Z,0
2023-02-14T01:15:00.561Z,0
2023-02-14T01:20:00.624Z,0
2023-02-14T01:25:00.644Z,0
2023-02-14T01:30:00.897Z,0
2023-02-14T01:35:00.722Z,0
2023-02-14T01:40:00.620Z,0
2023-02-14T01:45:00.672Z,0
2023-02-14T01:50:00.645Z,0
2023-02-14T01:55:00.926Z,0
2023-02-14T02:00:00.615Z,0
2023-02-14T02:05:00.613Z,0
2023-02-14T02:10:00.661Z,0
2023-02-14T02:15:00.824Z,0
2023-02-14T02:20:00.602Z,0
2023-02-14T02:25:00.598Z,0
2023-02-14T02:30:00.755Z,0
2023-02-14T02:35:00.554Z,0
2023-02-14T02:40:00.619Z,0
2023-02-14T02:45:00.598Z,0
2023-02-14T02:50:00.689Z,0
2023-02-14T02:55:00.588Z,0
2023-02-14T03:00:00.604Z,0
2023-02-14T03:05:00.628Z,0
2023-02-14T03:10:00.606Z,0
2023-02-14T03:15:00.737Z,0
2023-02-14T03:20:00.670Z,0
2023-02-14T03:25:00.545Z,0
2023-02-14T03:30:00.701Z,0
2023-02-14T03:35:00.618Z,0
2023-02-14T03:40:00.529Z,0
2023-02-14T03:45:00.633Z,0
2023-02-14T03:50:00.768Z,0
2023-02-14T03:55:00.632Z,0
2023-02-14T04:00:00.529Z,0
2023-02-14T04:05:00.700Z,0
2023-02-14T04:10:01.044Z,0
2023-02-14T04:15:00.674Z,0
2023-02-14T04:20:00.655Z,0
2023-02-14T04:25:01.049Z,0
2023-02-14T04:30:00.654Z,0
2023-02-14T04:35:00.986Z,0
2023-02-14T04:40:00.886Z,0
2023-02-14T04:45:03.144Z,0
2023-02-14T04:50:00.762Z,0
2023-02-14T04:55:00.719Z,0
2023-02-14T05:00:00.624Z,0
2023-02-14T05:05:00.669Z,0
2023-02-14T05:10:00.712Z,0
2023-02-14T05:15:00.688Z,0
2023-02-14T05:20:00.622Z,0
2023-02-14T05:25:00.632Z,0
2023-02-14T05:30:00.706Z,0
2023-02-14T05:35:01.262Z,0
2023-02-14T05:40:00.794Z,0
2023-02-14T05:45:00.654Z,0
2023-02-14T05:50:00.624Z,0
2023-02-14T05:55:00.602Z,0
2023-02-14T06:00:00.607Z,0
2023-02-14T06:05:00.605Z,0
2023-02-14T06:10:01.331Z,0
2023-02-14T06:15:00.672Z,0
2023-02-14T06:20:00.630Z,0
2023-02-14T06:25:00.736Z,0
2023-02-14T06:30:00.709Z,10
2023-02-14T06:35:00.552Z,31
2023-02-14T06:40:00.692Z,65
2023-02-14T06:45:00.576Z,108
2023-02-14T06:50:00.535Z,179
2023-02-14T06:55:00.665Z,225
2023-02-14T07:00:00.679Z,312
2023-02-14T07:05:00.625Z,502
2023-02-14T07:10:00.600Z,639
2023-02-14T07:15:00.729Z,810
2023-02-14T07:20:00.678Z,1027
2023-02-14T07:25:00.801Z,1157
2023-02-14T07:30:00.759Z,1335
2023-02-14T07:35:00.606Z,1674
2023-02-14T07:40:00.700Z,1881
2023-02-14T07:45:09.389Z,2114
2023-02-14T07:50:00.544Z,2114
2023-02-14T07:55:00.709Z,2114
2023-02-14T08:00:00.651Z,2377
2023-02-14T08:05:00.720Z,2675
2023-02-14T08:10:00.615Z,2675
2023-02-14T08:15:00.638Z,3005
2023-02-14T08:20:00.616Z,3378
2023-02-14T08:25:00.545Z,3550
2023-02-14T08:30:00.604Z,3805
2023-02-14T08:35:00.670Z,3805
2023-02-14T08:40:00.574Z,4277
2023-02-14T08:45:00.651Z,4277
2023-02-14T08:50:00.645Z,4277
2023-02-14T08:55:00.672Z,4810
2023-02-14T09:00:00.756Z,4810
2023-02-14T09:05:00.712Z,4810
2023-02-14T09:10:00.744Z,4810
2023-02-14T09:15:00.688Z,4810
2023-02-14T09:20:00.638Z,6076
2023-02-14T09:25:00.640Z,6076
2023-02-14T09:30:00.722Z,30339
2023-02-14T09:35:00.695Z,43823
2023-02-14T09:40:00.625Z,43823
2023-02-14T09:45:00.639Z,49261
2023-02-14T09:50:00.722Z,49261
2023-02-14T09:55:00.550Z,49261
2023-02-14T10:00:00.535Z,49261
2023-02-14T10:05:00.712Z,55348
2023-02-14T10:10:00.630Z,55348
2023-02-14T10:15:00.523Z,59183
2023-02-14T10:20:00.541Z,59183
2023-02-14T10:25:00.758Z,59183
2023-02-14T10:30:00.764Z,59183
2023-02-14T10:35:00.712Z,59183
2023-02-14T10:40:00.619Z,59183
2023-02-14T10:45:00.621Z,59183
2023-02-14T10:50:00.632Z,69920
2023-02-14T10:55:00.662Z,69920
2023-02-14T11:00:00.702Z,69920
2023-02-14T11:05:00.734Z,69920
2023-02-14T11:10:00.618Z,74325
2023-02-14T11:15:00.722Z,74325
2023-02-14T11:20:00.688Z,74325
2023-02-14T11:25:01.489Z,74325
2023-02-14T11:30:00.687Z,78560
2023-02-14T11:35:00.722Z,78560
2023-02-14T11:40:00.609Z,78560
2023-02-14T11:45:00.680Z,78560
2023-02-14T11:50:00.605Z,78560
2023-02-14T11:55:00.624Z,78560
2023-02-14T12:00:00.756Z,78560
2023-02-14T12:05:00.672Z,81250
2023-02-14T12:10:00.629Z,81250
2023-02-14T12:15:00.677Z,81250
2023-02-14T12:20:00.645Z,81250
2023-02-14T12:25:00.643Z,81250
2023-02-14T12:30:00.731Z,81250
2023-02-14T12:35:00.743Z,81250
2023-02-14T12:40:00.659Z,81250
2023-02-14T12:45:00.667Z,81250
2023-02-14T12:50:00.696Z,81250
2023-02-14T12:55:00.572Z,81250
2023-02-14T13:00:00.564Z,81078
2023-02-14T13:05:00.614Z,81078
2023-02-14T13:10:00.669Z,81078
2023-02-14T13:15:00.540Z,81078
2023-02-14T13:20:00.661Z,81078
2023-02-14T13:25:00.589Z,81078
2023-02-14T13:30:00.665Z,81078
2023-02-14T13:35:00.530Z,81078
2023-02-14T13:40:00.652Z,81078
2023-02-14T13:45:00.606Z,81078
2023-02-14T13:50:00.510Z,81078
2023-02-14T13:55:00.598Z,71119
2023-02-14T14:00:00.565Z,71119
2023-02-14T14:05:00.579Z,69904
2023-02-14T14:10:00.686Z,69904
2023-02-14T14:15:00.542Z,69904
2023-02-14T14:20:00.682Z,69904
2023-02-14T14:25:00.691Z,69904
2023-02-14T14:30:00.645Z,62101
2023-02-14T14:35:00.700Z,62101
2023-02-14T14:40:00.595Z,62101
2023-02-14T14:45:00.574Z,55144
2023-02-14T14:50:00.693Z,55493
2023-02-14T14:55:00.571Z,55493
2023-02-14T15:00:00.673Z,49057
2023-02-14T15:05:00.656Z,49057
2023-02-14T15:10:00.633Z,43652
2023-02-14T15:15:00.653Z,43652
2023-02-14T15:20:00.679Z,38806
2023-02-14T15:25:00.676Z,38806
2023-02-14T15:30:00.710Z,34514
2023-02-14T15:35:00.694Z,5196
2023-02-14T15:40:00.625Z,4625
2023-02-14T15:45:00.543Z,4110
2023-02-14T15:50:02.556Z,3648
2023-02-14T15:55:00.599Z,3242
2023-02-14T16:00:00.591Z,2881
2023-02-14T16:05:00.579Z,2559
2023-02-14T16:10:00.603Z,2010
2023-02-14T16:15:00.538Z,2010
2023-02-14T16:20:00.608Z,1590
2023-02-14T16:25:00.627Z,1258
2023-02-14T16:30:03.035Z,992
2023-02-14T16:35:00.595Z,782
2023-02-14T16:40:00.602Z,545
2023-02-14T16:45:00.610Z,392
2023-02-14T16:50:00.650Z,237
2023-02-14T16:55:00.608Z,199
2023-02-14T17:00:00.610Z,121
2023-02-14T17:05:00.676Z,52
2023-02-14T17:10:00.502Z,24
2023-02-14T17:15:00.636Z,10
2023-02-14T17:20:00.638Z,10
2023-02-14T17:25:00.723Z,3
2023-02-14T17:30:00.659Z,3
2023-02-14T17:35:00.736Z,2
2023-02-14T17:40:00.637Z,2
2023-02-14T17:45:00.514Z,2
2023-02-14T17:50:00.622Z,2
2023-02-14T17:55:00.639Z,2
2023-02-14T18:00:00.661Z,2
2023-02-14T18:05:00.594Z,2
2023-02-14T18:10:00.760Z,2
2023-02-14T18:15:00.577Z,2
2023-02-14T18:20:02.801Z,2
2023-02-14T18:25:00.550Z,2
2023-02-14T18:30:00.719Z,0
2023-02-14T18:35:00.690Z,0
2023-02-14T18:40:00.640Z,0
2023-02-14T18:45:00.642Z,0
2023-02-14T18:50:00.570Z,0
2023-02-14T18:55:00.551Z,0
2023-02-14T19:05:00.705Z,0
2023-02-14T19:10:00.860Z,0
2023-02-14T19:15:00.457Z,0
2023-02-14T19:20:00.692Z,0
2023-02-14T19:25:00.686Z,0
2023-02-14T19:30:00.557Z,0
2023-02-14T19:35:02.445Z,0
2023-02-14T19:40:00.849Z,0
2023-02-14T19:45:00.572Z,0
2023-02-14T19:50:00.866Z,0
2023-02-14T19:55:00.806Z,0
2023-02-14T20:00:00.588Z,0
2023-02-14T20:05:00.697Z,0
2023-02-14T20:10:00.935Z,0
2023-02-14T20:15:00.680Z,0
2023-02-14T20:20:00.609Z,0
2023-02-14T20:25:00.645Z,0
2023-02-14T20:30:00.533Z,0
2023-02-14T20:35:00.554Z,0
2023-02-14T20:40:00.544Z,0
2023-02-14T20:45:00.488Z,0
2023-02-14T20:50:00.528Z,0
2023-02-14T20:55:00.635Z,0
2023-02-14T21:00:00.785Z,0
2023-02-14T21:05:00.683Z,0
2023-02-14T21:10:00.689Z,0
2023-02-14T21:15:00.696Z,0
2023-02-14T21:20:01.019Z,0
2023-02-14T21:25:00.648Z,0
2023-02-14T21:30:00.704Z,0
2023-02-14T21:35:00.561Z,0
2023-02-14T21:40:00.592Z,0
2023-02-14T21:45:00.611Z,0
2023-02-14T21:50:00.716Z,0
2023-02-14T21:55:00.681Z,0
2023-02-14T22:00:01.174Z,0
2023-02-14T22:05:00.689Z,0
2023-02-14T22:10:00.588Z,0
2023-02-14T22:15:00.770Z,0
2023-02-14T22:20:00.699Z,0
2023-02-14T22:25:00.867Z,0
2023-02-14T22:30:00.694Z,0
2023-02-14T22:35:00.709Z,0
2023-02-14T22:40:00.704Z,0
2023-02-14T22:45:00.637Z,0
2023-02-14T22:50:01.429Z,0
2023-02-14T22:55:00.702Z,0
2023-02-14T23:00:00.528Z,0
2023-02-14T23:05:00.720Z,0
2023-02-14T23:10:00.584Z,0
2023-02-14T23:15:00.519Z,0
